Terminal Aerodrome Forecast
Issued by NWS

Home | Current Version | Previous Version | Graphics & Text | Print | Product List | Glossary On
Versions: 1 2 3 4 5 6 7 8 9 10 11 12
000
FTUS43 KICT 251720
TAFCNU
TAF
KCNU 251720Z 2518/2618 15008KT P6SM SCT200
     FM251900 18011KT P6SM FEW050
     FM260000 18006KT P6SM SCT200
     FM261500 20010KT P6SM SCT200=

USA.gov is the U.S. government's official web portal to all federal, state and local government web resources and services.